Terminal Aerodrome Forecast
Issued by NWS Sterling, VA

Home | Current Version | Previous Version | Text Only | Print | Product List | Glossary On
Versions: 1 2 3 4 5 6 7 8 9 10 11 12 13 14 15 16 17 18 19 20 21
840
FTUS41 KLWX 291120
TAFBWI
TAF
KBWI 291120Z 2912/3018 VRB03KT 6SM BR OVC005
     FM291400 00000KT P6SM OVC008
     FM291700 27005KT P6SM BKN040
     FM292300 20005KT P6SM BKN060
     FM300200 13005KT P6SM BKN035
     FM300600 11004KT 5SM BR BKN010
     FM300900 08004KT 4SM BR BKN008
     FM301500 17006KT P6SM BKN015=

USA.gov is the U.S. government's official web portal to all federal, state and local government web resources and services.